createdAt,value
2019-05-02T00:02:24.082Z,10.10
2019-05-02T00:04:51.059Z,10.10
2019-05-02T00:07:21.795Z,10.00
2019-05-02T00:10:12.056Z,10.00
2019-05-02T00:12:40.687Z,9.90
2019-05-02T00:15:09.233Z,9.80
2019-05-02T00:17:37.807Z,9.90
2019-05-02T00:20:10.787Z,9.90
2019-05-02T00:34:44.720Z,9.90
2019-05-02T00:37:18.756Z,9.90
2019-05-02T00:55:36.787Z,9.60
2019-05-02T00:58:09.977Z,9.50
2019-05-02T01:04:29.823Z,9.50
2019-05-02T01:07:20.374Z,9.40
2019-05-02T01:19:03.847Z,9.20
2019-05-02T01:21:33.967Z,9.20
2019-05-02T01:24:41.648Z,9.20
2019-05-02T01:27:11.943Z,9.20
2019-05-02T01:29:42.340Z,9.30
2019-05-02T01:32:15.909Z,9.30
2019-05-02T01:34:54.489Z,9.30
2019-05-02T01:37:58.323Z,9.30
2019-05-02T01:40:37.939Z,9.20
2019-05-02T01:49:47.321Z,9.10
2019-05-02T01:52:23.433Z,9.10
2019-05-02T01:54:56.055Z,9.20
2019-05-02T01:57:31.227Z,9.20
2019-05-02T02:00:04.269Z,9.20
2019-05-02T02:02:44.880Z,9.20
2019-05-02T02:05:15.105Z,9.20
2019-05-02T02:07:43.992Z,9.10
2019-05-02T02:10:19.882Z,8.90
2019-05-02T02:13:15.049Z,8.90
2019-05-02T02:22:46.958Z,8.60
2019-05-02T02:32:02.350Z,8.50
2019-05-02T02:34:39.069Z,8.40
2019-05-02T02:44:23.277Z,8.30
2019-05-02T03:00:24.368Z,8.40
2019-05-02T03:03:20.983Z,8.40
2019-05-02T03:05:51.600Z,8.50
2019-05-02T03:08:53.876Z,8.50
2019-05-02T03:25:09.374Z,8.60
2019-05-02T03:53:08.957Z,9.10
2019-05-02T04:06:42.978Z,9.30
2019-05-02T04:09:23.515Z,9.40
2019-05-02T04:11:55.647Z,9.40
2019-05-02T04:14:37.532Z,9.50
2019-05-02T04:16:57.312Z,9.50
2019-05-02T04:19:34.931Z,9.60
2019-05-02T04:22:08.922Z,9.60
2019-05-02T04:24:35.665Z,9.70
2019-05-02T04:27:04.542Z,9.80
2019-05-02T04:29:33.353Z,9.90
2019-05-02T04:32:04.328Z,10.00
2019-05-02T04:34:32.529Z,10.10
2019-05-02T04:37:04.020Z,10.10
2019-05-02T04:39:31.364Z,10.10
2019-05-02T04:42:05.218Z,10.10
2019-05-02T04:44:40.900Z,10.20
2019-05-02T04:47:15.099Z,10.20
2019-05-02T04:49:35.697Z,10.30
2019-05-02T04:52:06.931Z,10.30
2019-05-02T04:54:32.343Z,10.40
2019-05-02T04:57:02.388Z,10.40
2019-05-02T04:59:33.245Z,10.40
2019-05-02T05:02:01.850Z,10.50
2019-05-02T05:04:33.316Z,10.50
2019-05-02T05:07:01.328Z,10.50
2019-05-02T05:09:30.205Z,10.40
2019-05-02T05:12:02.503Z,10.30
2019-05-02T05:14:31.434Z,10.30
2019-05-02T05:16:59.482Z,10.30
2019-05-02T05:19:32.473Z,10.30
2019-05-02T05:22:04.494Z,10.30
2019-05-02T05:24:38.548Z,10.30
2019-05-02T05:27:08.282Z,10.30
2019-05-02T05:29:37.487Z,10.20
2019-05-02T05:32:09.888Z,10.30
2019-05-02T05:34:37.997Z,10.30
2019-05-02T05:37:09.341Z,10.30
2019-05-02T05:39:38.146Z,10.30
2019-05-02T05:42:08.393Z,10.20
2019-05-02T05:44:37.477Z,10.30
2019-05-02T05:47:07.466Z,10.40
2019-05-02T05:49:37.546Z,10.30
2019-05-02T05:52:08.084Z,10.30
2019-05-02T05:54:38.356Z,10.40
2019-05-02T05:57:07.637Z,10.40
2019-05-02T05:59:37.950Z,10.40
2019-05-02T06:02:12.683Z,10.40
2019-05-02T06:04:38.755Z,10.50
2019-05-02T06:07:07.475Z,10.60
2019-05-02T06:09:36.135Z,10.50
2019-05-02T06:12:04.717Z,10.50
2019-05-02T06:14:34.604Z,10.50
2019-05-02T06:17:03.595Z,10.60
2019-05-02T06:19:32.089Z,10.60
2019-05-02T06:22:00.649Z,10.70
2019-05-02T06:24:29.107Z,10.70
2019-05-02T06:26:57.723Z,10.70
2019-05-02T06:29:26.201Z,10.70
2019-05-02T06:31:54.679Z,10.70
2019-05-02T06:34:23.161Z,10.70
2019-05-02T06:36:51.798Z,10.70
2019-05-02T06:39:20.293Z,10.80
2019-05-02T06:41:52.025Z,10.80
2019-05-02T06:44:23.838Z,10.90
2019-05-02T06:46:49.347Z,10.90
2019-05-02T06:49:17.860Z,11.00
2019-05-02T06:51:46.463Z,11.00
2019-05-02T06:54:17.990Z,11.10
2019-05-02T06:56:47.943Z,11.30
2019-05-02T06:59:18.600Z,11.30
2019-05-02T07:01:46.201Z,11.40
2019-05-02T07:04:17.568Z,11.40
2019-05-02T07:06:58.219Z,11.40
2019-05-02T07:09:18.104Z,11.40
2019-05-02T07:11:57.044Z,11.40
2019-05-02T07:14:18.661Z,11.50
2019-05-02T07:17:05.773Z,11.60
2019-05-02T07:19:36.199Z,11.70
2019-05-02T07:22:04.998Z,11.70
2019-05-02T07:24:33.457Z,11.70
2019-05-02T07:27:02.574Z,11.80
2019-05-02T07:29:31.208Z,11.80
2019-05-02T07:31:59.789Z,11.80
2019-05-02T07:34:28.387Z,11.90
2019-05-02T07:36:56.944Z,11.90
2019-05-02T07:39:25.623Z,11.90
2019-05-02T07:41:54.202Z,12.00
2019-05-02T07:44:27.108Z,12.10
2019-05-02T07:46:56.925Z,12.10
2019-05-02T07:49:26.648Z,12.10
2019-05-02T07:51:57.508Z,12.10
2019-05-02T07:54:24.728Z,11.90
2019-05-02T07:56:54.675Z,11.90
2019-05-02T07:59:23.635Z,11.90
2019-05-02T08:01:53.644Z,12.00
2019-05-02T08:04:22.203Z,12.10
2019-05-02T08:06:50.805Z,12.20
2019-05-02T08:09:19.518Z,12.20
2019-05-02T08:11:48.058Z,12.30
2019-05-02T08:14:16.574Z,12.30
2019-05-02T08:16:45.049Z,12.40
2019-05-02T08:19:13.531Z,12.30
2019-05-02T08:21:42.013Z,12.40
2019-05-02T08:24:10.566Z,12.60
2019-05-02T08:26:46.985Z,12.80
2019-05-02T08:29:15.922Z,13.20
2019-05-02T08:31:44.441Z,13.50
2019-05-02T08:34:15.093Z,13.90
2019-05-02T08:36:43.216Z,14.00
2019-05-02T08:39:14.344Z,14.20
2019-05-02T08:41:41.992Z,14.30
2019-05-02T08:44:10.510Z,14.20
2019-05-02T08:46:39.012Z,14.40
2019-05-02T08:49:07.587Z,14.30
2019-05-02T08:51:36.043Z,14.30
2019-05-02T08:54:04.922Z,14.40
2019-05-02T08:56:34.950Z,14.40
2019-05-02T08:59:03.916Z,14.60
2019-05-02T09:01:35.290Z,14.70
2019-05-02T09:04:02.584Z,14.60
2019-05-02T09:06:31.130Z,14.70
2019-05-02T09:08:59.611Z,14.70
2019-05-02T09:11:28.209Z,15.20
2019-05-02T09:13:56.724Z,15.50
2019-05-02T09:16:28.463Z,15.70
2019-05-02T09:18:55.487Z,15.90
2019-05-02T09:21:34.213Z,15.90
2019-05-02T09:23:57.377Z,16.00
2019-05-02T09:26:35.288Z,16.90
2019-05-02T09:29:00.928Z,18.30
2019-05-02T09:31:26.501Z,18.40
2019-05-02T09:33:55.699Z,19.00
2019-05-02T09:36:24.369Z,19.60
2019-05-02T09:38:55.908Z,19.10
2019-05-02T09:41:26.825Z,18.50
2019-05-02T09:43:56.678Z,18.50
2019-05-02T09:46:25.220Z,18.20
2019-05-02T09:48:57.065Z,18.10
2019-05-02T09:51:23.955Z,18.40
2019-05-02T09:53:56.943Z,18.30
2019-05-02T09:56:22.813Z,18.10
2019-05-02T09:58:55.378Z,18.10
2019-05-02T10:01:25.581Z,18.10
2019-05-02T10:03:54.319Z,18.40
2019-05-02T10:06:23.055Z,18.40
2019-05-02T10:08:52.198Z,18.40
2019-05-02T10:11:22.422Z,18.70
2019-05-02T10:13:51.851Z,19.30
2019-05-02T10:16:23.565Z,19.80
2019-05-02T10:18:52.293Z,20.20
2019-05-02T10:21:22.795Z,20.20
2019-05-02T10:23:59.110Z,19.90
2019-05-02T10:26:24.552Z,20.10
2019-05-02T10:28:53.333Z,21.00
2019-05-02T10:31:22.257Z,21.80
2019-05-02T10:33:52.753Z,22.30
2019-05-02T10:36:23.836Z,22.70
2019-05-02T10:38:54.697Z,23.00
2019-05-02T10:41:22.462Z,23.20
2019-05-02T10:43:51.959Z,23.50
2019-05-02T10:46:27.819Z,23.70
2019-05-02T10:48:57.758Z,23.60
2019-05-02T10:51:27.844Z,23.70
2019-05-02T10:53:56.727Z,23.40
2019-05-02T10:56:25.410Z,23.30
2019-05-02T10:58:53.871Z,23.20
2019-05-02T11:01:39.070Z,23.60
2019-05-02T11:04:12.857Z,24.10
2019-05-02T11:06:42.574Z,24.20
2019-05-02T11:09:12.136Z,24.20
2019-05-02T11:11:42.516Z,24.10
2019-05-02T11:14:15.795Z,24.00
2019-05-02T11:16:48.732Z,24.10
2019-05-02T11:19:24.495Z,24.40
2019-05-02T11:21:58.282Z,24.80
2019-05-02T11:24:23.315Z,25.00
2019-05-02T11:26:52.865Z,25.00
2019-05-02T11:29:22.800Z,24.90
2019-05-02T11:31:52.195Z,24.70
2019-05-02T11:34:22.034Z,24.40
2019-05-02T11:36:52.705Z,23.80
2019-05-02T11:39:31.753Z,23.70
2019-05-02T11:41:52.725Z,23.00
2019-05-02T11:44:22.623Z,22.70
2019-05-02T11:46:52.161Z,22.70
2019-05-02T11:49:22.677Z,22.60
2019-05-02T11:51:52.605Z,22.40
2019-05-02T11:54:22.689Z,22.40
2019-05-02T11:56:53.449Z,21.90
2019-05-02T11:59:27.614Z,21.80
2019-05-02T12:02:00.177Z,22.40
2019-05-02T12:04:29.271Z,22.40
2019-05-02T12:07:01.282Z,22.20
2019-05-02T12:09:27.987Z,21.80
2019-05-02T12:11:56.774Z,21.70
2019-05-02T12:14:27.555Z,21.60
2019-05-02T12:16:55.560Z,21.50
2019-05-02T12:19:27.140Z,21.20
2019-05-02T12:21:56.454Z,21.00
2019-05-02T12:24:24.890Z,20.90
2019-05-02T12:26:53.351Z,21.00
2019-05-02T12:29:21.909Z,21.40
2019-05-02T12:31:52.703Z,22.20
2019-05-02T12:34:21.684Z,22.70
2019-05-02T12:36:52.106Z,22.70
2019-05-02T12:39:22.199Z,23.00
2019-05-02T12:41:53.140Z,23.00
2019-05-02T12:44:22.633Z,23.10
2019-05-02T12:46:52.082Z,23.10
2019-05-02T12:49:25.382Z,23.50
2019-05-02T12:51:52.448Z,24.00
2019-05-02T12:54:21.948Z,24.20
2019-05-02T12:56:52.884Z,24.40
2019-05-02T12:59:22.525Z,24.30
2019-05-02T13:01:51.827Z,24.10
2019-05-02T13:04:22.777Z,23.60
2019-05-02T13:06:52.857Z,22.90
2019-05-02T13:09:23.540Z,22.30
2019-05-02T13:11:53.888Z,21.90
2019-05-02T13:14:24.135Z,22.10
2019-05-02T13:17:00.729Z,22.00
2019-05-02T13:19:39.761Z,21.70
2019-05-02T13:22:15.804Z,21.80
2019-05-02T13:24:54.053Z,21.70
2019-05-02T13:27:22.725Z,21.60
2019-05-02T13:29:52.483Z,21.80
2019-05-02T13:32:24.505Z,21.90
2019-05-02T13:35:14.407Z,21.70
2019-05-02T13:37:46.099Z,21.50
2019-05-02T13:40:17.301Z,21.30
2019-05-02T13:43:02.951Z,21.00
2019-05-02T13:45:41.982Z,20.80
2019-05-02T13:48:12.197Z,20.90
2019-05-02T13:50:42.739Z,21.10
2019-05-02T13:53:12.147Z,21.20
2019-05-02T13:55:45.387Z,21.20
2019-05-02T13:58:14.188Z,21.30
2019-05-02T14:00:47.012Z,21.50
2019-05-02T14:03:16.220Z,21.70
2019-05-02T14:05:50.782Z,22.00
2019-05-02T14:08:36.883Z,21.90
2019-05-02T14:11:08.025Z,21.80
2019-05-02T14:13:37.148Z,21.90
2019-05-02T14:16:05.668Z,21.80
2019-05-02T14:18:34.224Z,21.60
2019-05-02T14:21:04.888Z,21.30
2019-05-02T14:23:33.400Z,20.90
2019-05-02T14:26:02.104Z,20.70
2019-05-02T14:28:35.995Z,20.30
2019-05-02T14:31:02.186Z,20.10
2019-05-02T14:33:33.104Z,19.90
2019-05-02T14:36:04.072Z,20.10
2019-05-02T14:38:33.006Z,20.10
2019-05-02T14:41:03.357Z,20.10
2019-05-02T14:43:53.233Z,20.10
2019-05-02T14:46:23.562Z,20.00
2019-05-02T14:48:52.558Z,20.00
2019-05-02T14:51:25.890Z,20.00
2019-05-02T14:53:52.624Z,19.80
2019-05-02T14:56:23.786Z,19.70
2019-05-02T14:58:52.836Z,19.40
2019-05-02T15:01:25.836Z,19.10
2019-05-02T15:03:52.939Z,18.60
2019-05-02T15:06:23.778Z,18.30
2019-05-02T15:08:52.589Z,18.10
2019-05-02T15:11:29.969Z,17.80
2019-05-02T15:16:23.070Z,17.30
2019-05-02T15:18:53.169Z,17.20
2019-05-02T15:21:22.935Z,17.10
2019-05-02T15:23:54.285Z,17.00
2019-05-02T15:26:26.279Z,17.00
2019-05-02T15:28:52.140Z,17.10
2019-05-02T15:31:33.732Z,17.10
2019-05-02T15:34:05.050Z,17.20
2019-05-02T15:36:37.056Z,17.30
2019-05-02T15:41:35.475Z,17.30
2019-05-02T15:44:04.097Z,17.30
2019-05-02T15:46:32.565Z,17.30
2019-05-02T15:49:01.894Z,17.20
2019-05-02T15:51:32.872Z,17.10
2019-05-02T15:54:09.019Z,17.20
2019-05-02T15:57:00.315Z,17.10
2019-05-02T15:59:37.465Z,17.00
2019-05-02T16:02:06.735Z,17.00
2019-05-02T16:04:36.882Z,16.70
2019-05-02T16:07:08.402Z,16.00
2019-05-02T16:09:57.238Z,15.10
2019-05-02T16:12:27.058Z,14.40
2019-05-02T16:14:55.448Z,13.80
2019-05-02T16:17:25.850Z,13.50
2019-05-02T16:19:58.705Z,13.30
2019-05-02T16:23:03.648Z,13.10
2019-05-02T16:25:34.003Z,12.90
2019-05-02T16:28:05.980Z,12.90
2019-05-02T16:30:32.481Z,12.90
2019-05-02T16:33:02.712Z,12.90
2019-05-02T16:35:33.124Z,12.90
2019-05-02T16:38:22.256Z,13.00
2019-05-02T16:40:52.490Z,12.90
2019-05-02T16:43:22.229Z,12.90
2019-05-02T16:45:52.569Z,13.00
2019-05-02T16:48:23.598Z,13.20
2019-05-02T16:50:51.348Z,13.30
2019-05-02T16:53:22.625Z,13.50
2019-05-02T16:56:09.337Z,13.50
2019-05-02T16:58:38.058Z,13.60
2019-05-02T17:01:08.272Z,13.50
2019-05-02T17:03:36.715Z,13.50
2019-05-02T17:06:05.251Z,13.30
2019-05-02T17:08:57.417Z,13.40
2019-05-02T17:11:27.774Z,13.30
2019-05-02T17:13:53.613Z,13.40
2019-05-02T17:16:22.190Z,13.30
2019-05-02T17:18:54.977Z,13.30
2019-05-02T17:21:22.150Z,13.30
2019-05-02T17:23:52.357Z,13.20
2019-05-02T17:26:22.878Z,13.10
2019-05-02T17:28:52.107Z,13.10
2019-05-02T17:31:22.936Z,13.10
2019-05-02T17:33:52.426Z,13.10
2019-05-02T17:36:28.315Z,13.00
2019-05-02T17:38:54.242Z,13.10
2019-05-02T17:41:22.623Z,13.00
2019-05-02T17:43:51.167Z,12.90
2019-05-02T17:46:21.964Z,12.80
2019-05-02T17:48:52.713Z,12.70
2019-05-02T17:51:33.873Z,12.70
2019-05-02T17:54:03.008Z,12.70
2019-05-02T17:56:32.584Z,12.70
2019-05-02T17:59:02.064Z,12.60
2019-05-02T18:01:35.028Z,12.70
2019-05-02T18:04:06.787Z,12.70
2019-05-02T18:06:35.498Z,12.70
2019-05-02T18:09:03.512Z,12.70
2019-05-02T18:11:36.433Z,12.70
2019-05-02T18:14:23.956Z,12.60
2019-05-02T18:17:12.740Z,12.50
2019-05-02T18:19:42.575Z,12.40
2019-05-02T18:22:23.237Z,12.40
2019-05-02T18:24:46.395Z,12.30
2019-05-02T18:27:13.174Z,12.30
2019-05-02T18:29:45.458Z,12.30
2019-05-02T18:32:12.872Z,12.30
2019-05-02T18:34:41.891Z,12.20
2019-05-02T18:37:10.591Z,12.20
2019-05-02T18:39:42.594Z,12.20
2019-05-02T18:42:16.628Z,12.20
2019-05-02T18:44:43.531Z,12.20
2019-05-02T18:47:19.651Z,12.20
2019-05-02T18:49:42.190Z,12.20
2019-05-02T18:52:11.704Z,12.30
2019-05-02T18:55:01.523Z,12.20
2019-05-02T18:57:30.027Z,12.20
2019-05-02T19:00:01.856Z,12.20
2019-05-02T19:02:34.085Z,12.20
2019-05-02T19:05:36.108Z,12.10
2019-05-02T19:08:04.920Z,12.10
2019-05-02T19:10:37.054Z,12.10
2019-05-02T19:13:06.064Z,12.10
2019-05-02T19:15:34.773Z,12.10
2019-05-02T19:18:05.412Z,12.00
2019-05-02T19:20:51.044Z,12.00
2019-05-02T19:23:10.053Z,12.00
2019-05-02T19:25:38.481Z,12.00
2019-05-02T19:28:09.119Z,12.00
2019-05-02T19:30:39.270Z,12.10
2019-05-02T19:33:08.134Z,12.10
2019-05-02T19:35:37.651Z,12.20
2019-05-02T19:38:08.501Z,12.20
2019-05-02T19:40:37.012Z,12.30
2019-05-02T19:43:07.645Z,12.30
2019-05-02T19:46:02.222Z,12.30
2019-05-02T19:48:33.010Z,12.30
2019-05-02T19:51:02.425Z,12.30
2019-05-02T19:53:33.745Z,12.30
2019-05-02T19:56:02.994Z,12.30
2019-05-02T19:58:36.750Z,12.30
2019-05-02T20:01:26.426Z,12.40
2019-05-02T20:03:56.716Z,12.40
2019-05-02T20:06:23.072Z,12.40
2019-05-02T20:08:52.566Z,12.40
2019-05-02T20:11:21.991Z,12.30
2019-05-02T20:13:50.596Z,12.30
2019-05-02T20:16:23.764Z,12.20
2019-05-02T20:18:52.610Z,12.20
2019-05-02T20:21:28.933Z,12.20
2019-05-02T20:23:57.406Z,12.20
2019-05-02T20:26:25.981Z,12.20
2019-05-02T20:28:54.456Z,12.20
2019-05-02T20:31:22.967Z,12.10
2019-05-02T20:36:27.716Z,11.90
2019-05-02T20:39:51.218Z,11.90
2019-05-02T20:42:19.669Z,11.80
2019-05-02T20:44:48.134Z,11.80
2019-05-02T20:47:21.740Z,11.70
2019-05-02T20:49:51.812Z,11.70
2019-05-02T20:52:21.726Z,11.70
2019-05-02T20:54:52.197Z,11.60
2019-05-02T20:57:20.441Z,11.50
2019-05-02T20:59:48.956Z,11.50
2019-05-02T21:02:17.396Z,11.40
2019-05-02T21:05:09.368Z,11.30
2019-05-02T21:07:42.558Z,11.30
2019-05-02T21:10:13.072Z,11.40
2019-05-02T21:12:41.928Z,11.40
2019-05-02T21:15:29.796Z,11.50
2019-05-02T21:17:58.333Z,11.60
2019-05-02T21:20:28.162Z,11.60
2019-05-02T21:22:56.616Z,11.60
2019-05-02T21:25:25.237Z,11.50
2019-05-02T21:27:53.696Z,11.60
2019-05-02T21:30:24.552Z,11.60
2019-05-02T21:32:53.014Z,11.60
2019-05-02T21:35:22.372Z,11.60
2019-05-02T21:38:28.332Z,11.60
2019-05-02T21:40:56.948Z,11.60
2019-05-02T21:43:44.476Z,11.50
2019-05-02T21:46:12.984Z,11.50
2019-05-02T21:48:42.010Z,11.30
2019-05-02T21:51:17.898Z,11.20
2019-05-02T21:53:56.043Z,11.10
2019-05-02T21:56:25.592Z,11.10
2019-05-02T21:59:07.447Z,11.00
2019-05-02T22:01:42.077Z,10.90
2019-05-02T22:04:12.908Z,10.80
2019-05-02T22:06:42.754Z,10.70
2019-05-02T22:09:12.347Z,10.70
2019-05-02T22:11:42.882Z,10.60
2019-05-02T22:14:13.299Z,10.50
2019-05-02T22:16:54.083Z,10.30
2019-05-02T22:19:22.549Z,10.20
2019-05-02T22:21:52.532Z,10.10
2019-05-02T22:24:21.552Z,10.00
2019-05-02T22:26:50.017Z,10.00
2019-05-02T22:29:58.188Z,10.00
2019-05-02T22:32:26.619Z,9.90
2019-05-02T22:35:33.958Z,9.90
2019-05-02T22:38:04.030Z,9.80
2019-05-02T22:40:32.470Z,9.80
2019-05-02T22:43:01.918Z,9.70
2019-05-02T22:45:32.243Z,9.60
2019-05-02T22:48:02.525Z,9.60
2019-05-02T22:50:32.536Z,9.50
2019-05-02T22:53:01.084Z,9.40
2019-05-02T22:55:29.523Z,9.40
2019-05-02T22:57:57.977Z,9.40
2019-05-02T23:00:27.368Z,9.50
2019-05-02T23:02:55.849Z,9.40
2019-05-02T23:05:24.372Z,9.50
2019-05-02T23:07:52.838Z,9.50
2019-05-02T23:10:57.229Z,9.40
2019-05-02T23:13:25.747Z,9.40
2019-05-02T23:15:54.197Z,9.40
2019-05-02T23:18:22.830Z,9.30
2019-05-02T23:20:52.619Z,9.30
2019-05-02T23:23:21.553Z,9.30
2019-05-02T23:25:53.084Z,9.20
2019-05-02T23:28:28.925Z,9.20
2019-05-02T23:33:51.732Z,9.20
2019-05-02T23:36:20.557Z,9.20
2019-05-02T23:38:49.047Z,9.30
2019-05-02T23:41:17.490Z,9.30
2019-05-02T23:43:45.925Z,9.40
2019-05-02T23:46:14.372Z,9.50
2019-05-02T23:48:42.830Z,9.60
2019-05-02T23:51:12.151Z,9.50
2019-05-02T23:53:42.250Z,9.50
2019-05-02T23:56:13.018Z,9.50
2019-05-02T23:58:42.626Z,9.50
